Time;durP1;ratioP1;P1;durP2;ratioP2;P2;SDS_P1;SDS_P2;PMS_P1;PMS_P2;Temp;Humidity;BMP_temperature;BMP_pressure;BME280_temperature;BME280_humidity;BME280_pressure;Samples;Min_cycle;Max_cycle;Signal;HPM_P1;HPM_P2
2022/07/01 00:02:22;;;;;;;1999.90;999.90;;;15.00;99.90;;;;;;5077440;28;20189;-76
2022/07/01 00:04:48;;;;;;;1999.90;999.90;;;15.00;99.90;;;;;;5065625;28;20204;-76
2022/07/01 00:07:14;;;;;;;1999.90;999.90;;;14.90;99.90;;;;;;5078669;28;20189;-76
2022/07/01 00:09:40;;;;;;;1999.90;999.90;;;14.90;99.90;;;;;;5074502;28;20258;-75
2022/07/01 00:12:06;;;;;;;1999.90;999.90;;;14.90;99.90;;;;;;5068220;28;20609;-75
2022/07/01 00:14:32;;;;;;;1999.90;999.90;;;14.90;99.90;;;;;;5067869;28;20246;-76
2022/07/01 00:16:58;;;;;;;1999.90;999.90;;;14.80;99.90;;;;;;5072588;28;20195;-75
2022/07/01 00:19:27;;;;;;;1999.90;999.90;;;14.80;99.90;;;;;;5058071;28;20233;-76
2022/07/01 00:21:53;;;;;;;1999.90;999.90;;;14.80;99.90;;;;;;5077517;28;20818;-76
2022/07/01 00:24:19;;;;;;;1999.90;999.90;;;14.70;99.90;;;;;;5078246;28;20184;-77
2022/07/01 00:26:45;;;;;;;1999.90;999.90;;;14.80;99.90;;;;;;5073373;28;20186;-76
2022/07/01 00:29:11;;;;;;;1999.90;999.90;;;14.80;99.90;;;;;;5055005;28;20221;-76
2022/07/01 00:31:36;;;;;;;1999.90;999.90;;;14.70;99.90;;;;;;5072345;28;20523;-76
2022/07/01 00:34:03;;;;;;;1999.90;999.90;;;14.60;99.90;;;;;;5066362;28;20711;-76
2022/07/01 00:36:28;;;;;;;1999.90;999.90;;;14.50;99.90;;;;;;5070569;28;20187;-76
2022/07/01 00:38:54;;;;;;;1999.90;999.90;;;14.50;99.90;;;;;;5064570;28;20561;-77
2022/07/01 00:41:20;;;;;;;1999.90;999.90;;;14.40;99.90;;;;;;5080574;28;20176;-77
2022/07/01 00:43:46;;;;;;;1999.90;999.90;;;14.40;99.90;;;;;;5060262;28;20185;-75
2022/07/01 00:46:12;;;;;;;1999.90;999.90;;;14.60;99.90;;;;;;5070460;28;20189;-75
2022/07/01 00:48:38;;;;;;;1999.90;999.90;;;14.60;99.90;;;;;;5048586;28;20216;-75
2022/07/01 00:51:04;;;;;;;1999.90;999.90;;;14.60;99.90;;;;;;5057149;28;20671;-74
2022/07/01 00:53:31;;;;;;;1999.90;999.90;;;14.70;99.90;;;;;;5072709;28;20185;-74
2022/07/01 00:55:59;;;;;;;1999.90;999.90;;;14.70;99.90;;;;;;5066299;28;20685;-75
2022/07/01 00:58:29;;;;;;;1999.90;999.90;;;14.70;99.90;;;;;;5072926;28;20193;-75
2022/07/01 01:00:56;;;;;;;1999.90;999.90;;;14.80;99.90;;;;;;5043954;28;20192;-75
2022/07/01 01:03:22;;;;;;;1999.90;999.90;;;14.90;99.90;;;;;;5075434;28;20300;-74
2022/07/01 01:05:49;;;;;;;1999.90;999.90;;;14.90;99.90;;;;;;5084782;28;20224;-74
2022/07/01 01:08:15;;;;;;;1999.90;999.90;;;14.80;99.90;;;;;;5081696;28;20615;-73
2022/07/01 01:10:41;;;;;;;1999.90;999.90;;;14.60;99.90;;;;;;5064227;28;20192;-74
2022/07/01 01:13:09;;;;;;;1999.90;999.90;;;14.70;99.90;;;;;;5062279;28;20243;-75
2022/07/01 01:15:35;;;;;;;1999.90;999.90;;;14.70;99.90;;;;;;5091578;28;20213;-74
2022/07/01 01:18:05;;;;;;;1999.90;999.90;;;14.70;99.90;;;;;;5073403;28;20249;-75
2022/07/01 01:20:34;;;;;;;1999.90;999.90;;;14.80;99.90;;;;;;5091128;28;20187;-75
2022/07/01 01:23:00;;;;;;;1999.90;999.90;;;14.80;99.90;;;;;;5075716;28;20212;-74
2022/07/01 01:25:25;;;;;;;1999.90;999.90;;;14.80;99.90;;;;;;5046561;28;20238;-74
2022/07/01 01:27:51;;;;;;;1999.90;999.90;;;14.90;99.90;;;;;;5059844;28;20201;-73
2022/07/01 01:30:17;;;;;;;1999.90;999.90;;;14.90;99.90;;;;;;5072436;28;20185;-74
2022/07/01 01:32:42;;;;;;;1999.90;999.90;;;14.90;99.90;;;;;;5057665;28;20191;-74
2022/07/01 01:35:09;;;;;;;1999.90;999.90;;;14.90;99.90;;;;;;5089626;28;20185;-74
2022/07/01 01:37:35;;;;;;;1999.90;999.90;;;15.00;99.90;;;;;;5066159;28;20558;-74
2022/07/01 01:40:01;;;;;;;1999.90;999.90;;;15.00;99.90;;;;;;5091059;28;20172;-74
2022/07/01 01:42:27;;;;;;;1999.90;999.90;;;14.90;99.90;;;;;;5067305;28;20185;-73
2022/07/01 01:44:54;;;;;;;1999.90;999.90;;;14.90;99.90;;;;;;5086321;28;20177;-73
2022/07/01 01:47:20;;;;;;;1999.90;999.90;;;14.90;99.90;;;;;;5085640;28;20180;-74
2022/07/01 01:49:45;;;;;;;1999.90;999.90;;;14.80;99.90;;;;;;5085858;28;20217;-73
2022/07/01 01:52:11;;;;;;;1999.90;999.90;;;14.80;99.90;;;;;;5080745;28;20196;-74
2022/07/01 01:54:37;;;;;;;1999.90;999.90;;;14.90;99.90;;;;;;5076026;28;20544;-74
2022/07/01 01:57:06;;;;;;;1999.90;999.90;;;15.00;99.90;;;;;;5059205;28;20262;-74
2022/07/01 01:59:31;;;;;;;1999.90;999.90;;;14.80;99.90;;;;;;5058724;28;20646;-73
2022/07/01 02:01:57;;;;;;;1999.90;999.90;;;14.90;99.90;;;;;;5075313;28;20194;-74
2022/07/01 02:04:23;;;;;;;1999.90;999.90;;;14.80;99.90;;;;;;5075209;28;20278;-74
2022/07/01 02:06:50;;;;;;;1999.90;999.90;;;14.70;99.90;;;;;;5079168;28;20188;-74
2022/07/01 02:09:16;;;;;;;1999.90;999.90;;;14.60;99.90;;;;;;5056477;28;20201;-74
2022/07/01 02:11:41;;;;;;;1999.90;999.90;;;14.50;99.90;;;;;;5066585;28;20192;-75
2022/07/01 02:14:07;;;;;;;1999.90;999.90;;;14.40;99.90;;;;;;5078640;28;20185;-75
2022/07/01 02:16:33;;;;;;;1999.90;999.90;;;14.40;99.90;;;;;;5088716;28;20190;-75
2022/07/01 02:18:59;;;;;;;1999.90;999.90;;;14.40;99.90;;;;;;5081332;28;20525;-75
2022/07/01 02:21:25;;;;;;;1999.90;999.90;;;14.30;99.90;;;;;;5079597;28;20193;-75
2022/07/01 02:23:52;;;;;;;1999.90;999.90;;;14.30;99.90;;;;;;5071761;28;20192;-75
2022/07/01 02:26:18;;;;;;;1999.90;999.90;;;14.20;99.90;;;;;;5092440;28;20195;-74
2022/07/01 02:28:46;;;;;;;1999.90;999.90;;;14.20;99.90;;;;;;5076218;28;20749;-74
2022/07/01 02:31:12;;;;;;;1999.90;999.90;;;14.10;99.90;;;;;;5093462;28;20192;-76
2022/07/01 02:33:38;;;;;;;1999.90;999.90;;;14.10;99.90;;;;;;5075039;28;20703;-74
2022/07/01 02:36:04;;;;;;;1999.90;999.90;;;14.30;99.90;;;;;;5073940;28;20195;-76
2022/07/01 02:38:30;;;;;;;1999.90;999.90;;;14.20;99.90;;;;;;5080415;28;20200;-75
2022/07/01 02:40:55;;;;;;;1999.90;999.90;;;14.20;99.90;;;;;;5069426;28;20268;-76
2022/07/01 02:43:21;;;;;;;1999.90;999.90;;;14.20;99.90;;;;;;5081670;28;20192;-75
2022/07/01 02:45:47;;;;;;;1999.90;999.90;;;14.20;99.90;;;;;;5081879;28;20196;-74
2022/07/01 02:48:12;;;;;;;1999.90;999.90;;;14.10;99.90;;;;;;5063295;28;20278;-75
2022/07/01 02:50:38;;;;;;;1999.90;999.90;;;14.00;99.90;;;;;;5083316;28;20216;-75
2022/07/01 02:53:04;;;;;;;1999.90;999.90;;;14.00;99.90;;;;;;5064262;28;20189;-75
2022/07/01 02:55:29;;;;;;;1999.90;999.90;;;14.10;99.90;;;;;;5063962;28;20651;-75
2022/07/01 02:57:56;;;;;;;1999.90;999.90;;;14.20;99.90;;;;;;5064060;28;20220;-76
2022/07/01 03:00:22;;;;;;;1999.90;999.90;;;14.30;99.90;;;;;;5080955;28;20264;-75
2022/07/01 03:02:48;;;;;;;1999.90;999.90;;;14.40;99.90;;;;;;5076753;28;20196;-75
2022/07/01 03:05:14;;;;;;;1999.90;999.90;;;14.50;99.90;;;;;;5065109;28;20203;-74
2022/07/01 03:07:40;;;;;;;1999.90;999.90;;;14.40;99.90;;;;;;5069271;28;20264;-75
2022/07/01 03:10:07;;;;;;;1999.90;999.90;;;14.20;99.90;;;;;;5074531;28;20220;-76
2022/07/01 03:12:38;;;;;;;1999.90;999.90;;;14.10;99.90;;;;;;5092829;28;20181;-75
2022/07/01 03:15:09;;;;;;;1999.90;999.90;;;14.00;99.90;;;;;;5085445;28;20185;-75
2022/07/01 03:17:37;;;;;;;1999.90;999.90;;;14.00;99.90;;;;;;5078283;28;20177;-75
2022/07/01 03:20:04;;;;;;;1999.90;999.90;;;13.90;99.90;;;;;;5087254;28;20230;-75
2022/07/01 03:22:31;;;;;;;1999.90;999.90;;;13.90;99.90;;;;;;5067839;28;20173;-73
2022/07/01 03:24:57;;;;;;;1999.90;999.90;;;13.90;99.90;;;;;;5074768;28;20212;-75
2022/07/01 03:27:24;;;;;;;1999.90;999.90;;;13.90;99.90;;;;;;5083622;28;20576;-75
2022/07/01 03:29:50;;;;;;;1999.90;999.90;;;13.90;99.90;;;;;;5073785;28;20630;-75
2022/07/01 03:32:16;;;;;;;1999.90;999.90;;;13.90;99.90;;;;;;5073412;28;20283;-75
2022/07/01 03:34:45;;;;;;;1999.90;999.90;;;13.90;99.90;;;;;;5078174;28;20276;-75
2022/07/01 03:37:12;;;;;;;1999.90;999.90;;;13.90;99.90;;;;;;5061251;28;20185;-75
2022/07/01 03:39:39;;;;;;;1999.90;999.90;;;13.90;99.90;;;;;;5080001;28;20185;-75
2022/07/01 03:42:06;;;;;;;1999.90;999.90;;;13.90;99.90;;;;;;5073815;28;20185;-75
2022/07/01 03:44:33;;;;;;;1999.90;999.90;;;14.00;99.90;;;;;;5072044;28;20180;-75
2022/07/01 03:46:59;;;;;;;1999.90;999.90;;;13.80;99.90;;;;;;5077710;28;20185;-75
2022/07/01 03:49:25;;;;;;;1999.90;999.90;;;13.90;99.90;;;;;;5076944;28;20288;-75
2022/07/01 03:51:51;;;;;;;1999.90;999.90;;;13.90;99.90;;;;;;5066070;28;20201;-75
2022/07/01 03:54:29;;;;;;;1999.90;999.90;;;14.00;99.90;;;;;;5085515;28;20196;-75
2022/07/01 03:57:03;;;;;;;1999.90;999.90;;;13.90;99.90;;;;;;5058374;28;20188;-75
2022/07/01 03:59:33;;;;;;;1999.90;999.90;;;14.00;99.90;;;;;;5075505;28;20189;-74
2022/07/01 04:01:59;;;;;;;1999.90;999.90;;;14.00;99.90;;;;;;5075133;28;20206;-74
2022/07/01 04:04:26;;;;;;;1999.90;999.90;;;14.10;99.90;;;;;;5083270;28;20193;-73
2022/07/01 04:06:57;;;;;;;1999.90;999.90;;;14.30;99.90;;;;;;5084795;28;20192;-74
2022/07/01 04:09:24;;;;;;;1999.90;999.90;;;14.30;99.90;;;;;;5073531;28;20649;-74
2022/07/01 04:11:50;;;;;;;1999.90;999.90;;;14.30;99.90;;;;;;5067087;28;20649;-75
2022/07/01 04:14:16;;;;;;;1999.90;999.90;;;14.40;99.90;;;;;;5075132;28;20213;-74
2022/07/01 04:16:44;;;;;;;1999.90;999.90;;;14.40;99.90;;;;;;5076682;28;20197;-74
2022/07/01 04:19:10;;;;;;;1999.90;999.90;;;14.40;99.90;;;;;;5080543;28;20195;-75
2022/07/01 04:24:22;;;;;;;1999.90;999.90;;;14.60;99.90;;;;;;5067635;28;20726;-75
2022/07/01 04:26:48;;;;;;;1999.90;999.90;;;14.60;99.90;;;;;;5055125;28;20185;-74
2022/07/01 04:29:14;;;;;;;1999.90;999.90;;;14.60;99.90;;;;;;5074803;28;20197;-75
2022/07/01 04:31:40;;;;;;;1999.90;999.90;;;14.70;99.90;;;;;;5055201;28;20189;-74
2022/07/01 04:34:07;;;;;;;1999.90;999.90;;;14.60;99.90;;;;;;5068263;28;20216;-75
2022/07/01 04:36:33;;;;;;;1999.90;999.90;;;14.60;99.90;;;;;;5072895;28;20177;-75
2022/07/01 04:39:00;;;;;;;1999.90;999.90;;;14.50;99.90;;;;;;5060208;28;20646;-74
2022/07/01 04:44:10;;;;;;;1999.90;999.90;;;14.40;99.90;;;;;;5076302;28;20196;-74
2022/07/01 04:46:36;;;;;;;1999.90;999.90;;;14.20;99.90;;;;;;5060963;28;20185;-83
2022/07/01 04:49:02;;;;;;;1999.90;999.90;;;14.10;99.90;;;;;;5057862;28;20312;-79
2022/07/01 04:51:28;;;;;;;1999.90;999.90;;;14.00;99.90;;;;;;5052731;28;20188;-78
2022/07/01 04:53:54;;;;;;;1999.90;999.90;;;14.00;99.90;;;;;;5065140;28;20177;-78
2022/07/01 04:56:20;;;;;;;1999.90;999.90;;;14.30;99.90;;;;;;5063333;28;20559;-72
2022/07/01 04:58:45;;;;;;;1999.90;999.90;;;14.40;99.90;;;;;;5083258;28;20184;-74
2022/07/01 05:01:11;;;;;;;1999.90;999.90;;;14.40;99.90;;;;;;5063154;28;20192;-78
2022/07/01 05:03:37;;;;;;;1999.90;999.90;;;14.30;99.90;;;;;;5084591;28;20193;-79
2022/07/01 05:06:03;;;;;;;1999.90;999.90;;;14.20;99.90;;;;;;5041520;28;20184;-78
2022/07/01 05:08:28;;;;;;;1999.90;999.90;;;14.20;99.90;;;;;;5045648;28;20367;-77
2022/07/01 05:10:54;;;;;;;1999.90;999.90;;;14.40;99.90;;;;;;5072965;28;20193;-77
2022/07/01 05:13:20;;;;;;;1999.90;999.90;;;14.40;99.90;;;;;;5064059;28;20263;-75
2022/07/01 05:15:45;;;;;;;1999.90;999.90;;;14.50;99.90;;;;;;5072634;28;20235;-79
2022/07/01 05:23:39;;;;;;;1999.90;999.90;;;14.90;99.90;;;;;;5070251;28;20196;-77
2022/07/01 05:26:05;;;;;;;1999.90;999.90;;;14.90;99.90;;;;;;5058096;28;20185;-76
2022/07/01 05:28:30;;;;;;;1999.90;999.90;;;14.80;99.90;;;;;;5068823;28;20236;-73
2022/07/01 05:30:56;;;;;;;1999.90;999.90;;;14.70;99.90;;;;;;5058252;28;20184;-72
2022/07/01 05:33:26;;;;;;;1999.90;999.90;;;14.70;99.90;;;;;;5058689;28;20219;-71
2022/07/01 05:35:52;;;;;;;1999.90;999.90;;;14.80;99.90;;;;;;5077598;28;20193;-72
2022/07/01 05:38:17;;;;;;;1999.90;999.90;;;14.70;99.90;;;;;;5084784;28;20184;-72
2022/07/01 05:40:46;;;;;;;1999.90;999.90;;;14.80;99.90;;;;;;5069651;28;20216;-72
2022/07/01 05:43:11;;;;;;;1999.90;999.90;;;14.70;99.90;;;;;;5065120;28;20177;-71
2022/07/01 05:45:37;;;;;;;1999.90;999.90;;;14.80;99.90;;;;;;5073392;28;20191;-71
2022/07/01 05:48:03;;;;;;;1999.90;999.90;;;14.90;99.90;;;;;;5060638;28;20187;-72
2022/07/01 05:50:28;;;;;;;1999.90;999.90;;;14.90;99.90;;;;;;5074676;28;20184;-72
2022/07/01 05:52:54;;;;;;;1999.90;999.90;;;15.00;99.90;;;;;;5086294;28;20238;-72
2022/07/01 05:55:20;;;;;;;1999.90;999.90;;;15.20;99.90;;;;;;5073083;28;20204;-73
2022/07/01 05:57:45;;;;;;;1999.90;999.90;;;15.40;99.90;;;;;;5066688;28;20200;-71
2022/07/01 06:00:12;;;;;;;1999.90;999.90;;;15.50;99.90;;;;;;5075353;28;20356;-75
2022/07/01 06:02:38;;;;;;;1999.90;999.90;;;15.30;99.90;;;;;;5070047;28;20542;-75
2022/07/01 06:05:04;;;;;;;1999.90;999.90;;;15.30;99.90;;;;;;5062307;28;20200;-71
2022/07/01 06:07:30;;;;;;;1999.90;999.90;;;15.30;99.90;;;;;;5078698;28;20681;-71
2022/07/01 06:09:57;;;;;;;1999.90;999.90;;;15.40;99.90;;;;;;5050687;28;20236;-72
2022/07/01 06:12:22;;;;;;;1999.90;999.90;;;15.40;99.90;;;;;;5088082;28;20185;-72
2022/07/01 06:14:49;;;;;;;1999.90;999.90;;;15.40;99.90;;;;;;5049783;28;20189;-73
2022/07/01 06:17:15;;;;;;;1999.90;999.90;;;15.40;99.90;;;;;;5075630;28;20668;-72
2022/07/01 06:19:41;;;;;;;1999.90;999.90;;;15.50;99.90;;;;;;5058246;28;20323;-71
2022/07/01 06:22:07;;;;;;;1999.90;999.90;;;15.70;99.90;;;;;;5093055;28;20693;-72
2022/07/01 06:24:33;;;;;;;1999.90;999.90;;;15.80;99.90;;;;;;5076115;28;20189;-71
2022/07/01 06:26:59;;;;;;;1999.90;999.90;;;15.90;99.90;;;;;;5084898;28;20185;-72
2022/07/01 06:29:27;;;;;;;1999.90;999.90;;;15.90;99.90;;;;;;5061924;28;20611;-73
2022/07/01 06:31:53;;;;;;;1999.90;999.90;;;16.00;99.90;;;;;;5082602;28;20189;-72
2022/07/01 06:34:18;;;;;;;1999.90;999.90;;;15.90;99.90;;;;;;5074214;28;20330;-72
2022/07/01 06:36:44;;;;;;;1999.90;999.90;;;15.90;99.90;;;;;;5072212;28;20211;-73
2022/07/01 06:39:10;;;;;;;1999.90;999.90;;;16.10;99.90;;;;;;5086685;28;20192;-73
2022/07/01 06:41:35;;;;;;;1999.90;999.90;;;16.30;99.90;;;;;;5074036;28;20652;-72
2022/07/01 06:44:02;;;;;;;1999.90;999.90;;;16.40;99.90;;;;;;5084547;28;20545;-72
2022/07/01 06:46:29;;;;;;;1999.90;999.90;;;16.90;99.90;;;;;;5077884;28;20217;-72
2022/07/01 06:48:55;;;;;;;1999.90;999.90;;;17.90;99.90;;;;;;5067156;28;20219;-73
2022/07/01 06:51:21;;;;;;;1999.90;999.90;;;19.80;99.90;;;;;;5076609;28;20668;-72
2022/07/01 06:53:47;;;;;;;1999.90;999.90;;;21.70;99.90;;;;;;5083475;28;20232;-72
2022/07/01 06:56:13;;;;;;;1999.90;999.90;;;23.80;99.90;;;;;;5076280;28;20209;-72
2022/07/01 06:58:40;;;;;;;1999.90;999.90;;;25.50;99.90;;;;;;5063230;28;20261;-71
2022/07/01 07:01:06;;;;;;;963.28;652.47;;;27.10;99.90;;;;;;5066374;28;20191;-73
2022/07/01 07:03:32;;;;;;;1568.00;999.90;;;27.50;99.90;;;;;;5062163;28;20669;-73
2022/07/01 07:06:02;;;;;;;1606.22;999.90;;;28.60;99.90;;;;;;5058557;28;20194;-73
2022/07/01 07:08:32;;;;;;;1656.20;999.90;;;28.70;99.90;;;;;;5082658;28;20213;-72
2022/07/01 07:10:58;;;;;;;1646.80;999.90;;;29.30;99.90;;;;;;5091825;28;20188;-73
2022/07/01 07:13:24;;;;;;;1586.15;999.90;;;29.10;99.90;;;;;;5075768;28;20195;-73
2022/07/01 07:15:50;;;;;;;1540.50;999.90;;;29.90;99.90;;;;;;5077564;28;20617;-69
2022/07/01 07:18:17;;;;;;;1499.55;999.90;;;29.80;99.90;;;;;;5083115;28;20184;-72
2022/07/01 07:20:42;;;;;;;1459.00;999.90;;;29.50;99.90;;;;;;5075089;28;20249;-72
2022/07/01 07:23:08;;;;;;;1418.57;999.90;;;29.80;99.90;;;;;;5045893;28;20184;-72
2022/07/01 07:25:34;;;;;;;1399.00;999.90;;;29.80;99.90;;;;;;5074555;28;20547;-71
2022/07/01 07:28:00;;;;;;;1383.97;999.90;;;30.10;99.90;;;;;;5093782;28;20523;-70
2022/07/01 07:30:25;;;;;;;1387.85;999.90;;;29.90;99.90;;;;;;5083599;28;20599;-72
2022/07/01 07:32:51;;;;;;;1399.80;999.90;;;30.30;99.90;;;;;;5073880;28;20199;-72
2022/07/01 07:35:17;;;;;;;1376.10;999.90;;;30.80;99.90;;;;;;5057294;28;20268;-72
2022/07/01 07:37:43;;;;;;;1363.15;999.90;;;31.40;99.90;;;;;;5076732;28;20556;-71
2022/07/01 07:40:11;;;;;;;1355.72;999.90;;;31.20;99.90;;;;;;5090463;28;20672;-72
2022/07/01 07:42:38;;;;;;;1351.55;999.90;;;31.40;99.90;;;;;;5093224;28;20176;-71
2022/07/01 07:45:06;;;;;;;1328.45;999.90;;;31.70;99.90;;;;;;5056520;28;20203;-72
2022/07/01 07:47:35;;;;;;;1321.35;999.90;;;31.00;99.90;;;;;;5071352;28;20267;-72
2022/07/01 07:50:01;;;;;;;1317.18;999.90;;;30.80;99.90;;;;;;5090389;28;20199;-72
2022/07/01 07:52:27;;;;;;;1315.80;999.90;;;30.40;99.90;;;;;;5084880;28;20206;-71
2022/07/01 07:54:52;;;;;;;1307.20;999.90;;;31.50;99.90;;;;;;5075251;28;20693;-71
2022/07/01 07:57:18;;;;;;;1271.82;999.90;;;31.00;99.90;;;;;;5076864;28;20645;-71
2022/07/01 07:59:44;;;;;;;1294.13;999.90;;;29.80;99.90;;;;;;5092180;28;20215;-71
2022/07/01 08:02:09;;;;;;;1301.50;999.90;;;29.30;99.90;;;;;;5077908;28;20216;-72
2022/07/01 08:04:35;;;;;;;1284.20;999.90;;;29.00;99.90;;;;;;5063957;28;20200;-68
2022/07/01 08:07:01;;;;;;;1305.97;999.90;;;27.90;99.90;;;;;;5074216;28;20199;-68
2022/07/01 08:09:27;;;;;;;1320.45;999.90;;;27.90;99.90;;;;;;5074505;28;20204;-69
2022/07/01 08:11:52;;;;;;;1343.57;999.90;;;28.30;99.90;;;;;;5091699;28;20220;-69
2022/07/01 08:14:18;;;;;;;1332.22;999.90;;;29.60;99.90;;;;;;5074776;28;20263;-69
2022/07/01 08:16:44;;;;;;;1330.03;999.90;;;29.10;99.90;;;;;;5080732;28;20223;-69
2022/07/01 08:19:09;;;;;;;1318.85;999.90;;;28.60;99.90;;;;;;5068642;28;20191;-69
2022/07/01 08:21:35;;;;;;;1304.68;999.90;;;28.80;99.90;;;;;;5073455;28;20185;-68
2022/07/01 08:24:01;;;;;;;1301.60;999.90;;;28.30;99.90;;;;;;5071487;28;20538;-70
2022/07/01 08:26:27;;;;;;;1310.03;999.90;;;27.50;99.90;;;;;;5079499;28;20180;-68
2022/07/01 08:28:53;;;;;;;1338.30;999.90;;;27.40;99.90;;;;;;5061729;28;20277;-69
2022/07/01 08:31:19;;;;;;;1344.60;999.90;;;27.70;99.90;;;;;;5071943;28;20191;-73
2022/07/01 08:33:44;;;;;;;1346.03;999.90;;;28.70;99.90;;;;;;5073900;28;20195;-70
2022/07/01 08:36:10;;;;;;;1330.88;999.90;;;30.00;99.90;;;;;;5054495;28;20275;-68
2022/07/01 08:38:36;;;;;;;1313.90;999.90;;;30.70;99.90;;;;;;5054884;28;20216;-70
2022/07/01 08:41:04;;;;;;;1324.80;999.90;;;30.70;99.90;;;;;;5076285;28;20184;-71
2022/07/01 08:43:30;;;;;;;1313.95;999.90;;;31.50;99.90;;;;;;5054494;28;20283;-70
2022/07/01 08:46:03;;;;;;;1295.40;999.90;;;31.60;99.90;;;;;;5071245;28;20184;-69
2022/07/01 08:48:30;;;;;;;1280.15;999.90;;;31.30;99.90;;;;;;5064306;28;20230;-68
2022/07/01 08:50:56;;;;;;;1285.40;999.90;;;31.00;99.90;;;;;;5089103;28;20191;-68
2022/07/01 08:53:22;;;;;;;1274.68;999.90;;;30.70;99.90;;;;;;5057543;28;20180;-69
2022/07/01 08:58:32;;;;;;;1278.35;999.90;;;31.20;99.90;;;;;;5073189;28;20206;-69
2022/07/01 09:01:20;;;;;;;1259.75;999.90;;;31.80;99.90;;;;;;5070020;28;20602;-73
2022/07/01 09:03:46;;;;;;;1245.38;999.90;;;30.70;99.90;;;;;;5073040;28;20646;-69
2022/07/01 09:06:17;;;;;;;1225.85;999.90;;;29.10;99.90;;;;;;5055072;28;20180;-69
2022/07/01 09:08:44;;;;;;;1224.05;999.90;;;27.70;99.90;;;;;;5061947;28;20291;-74
2022/07/01 09:11:17;;;;;;;1226.30;999.90;;;27.10;99.90;;;;;;5073448;28;20541;-70
2022/07/01 09:13:44;;;;;;;1240.00;999.90;;;26.50;99.90;;;;;;5072792;28;20185;-71
2022/07/01 09:16:15;;;;;;;1237.30;999.90;;;26.60;99.90;;;;;;5052129;28;20187;-72
2022/07/01 09:18:59;;;;;;;1238.30;999.90;;;25.60;99.90;;;;;;5064345;28;20222;-71
2022/07/01 09:21:28;;;;;;;1235.45;999.90;;;24.50;99.90;;;;;;5073011;28;20245;-72
2022/07/01 09:23:54;;;;;;;1241.30;999.90;;;23.50;99.90;;;;;;5073924;28;20262;-69
2022/07/01 09:26:22;;;;;;;1280.45;999.90;;;22.90;99.90;;;;;;5082872;28;20185;-69
2022/07/01 09:28:57;;;;;;;1298.20;999.90;;;24.20;99.90;;;;;;5065209;28;20258;-69
2022/07/01 09:31:52;;;;;;;1305.93;999.90;;;25.20;99.90;;;;;;5070478;28;20188;-69
2022/07/01 09:34:18;;;;;;;1323.07;999.90;;;25.30;99.90;;;;;;5057962;28;20184;-69
2022/07/01 09:36:53;;;;;;;1314.80;999.90;;;26.50;99.90;;;;;;5055789;28;20276;-69
2022/07/01 09:39:18;;;;;;;1310.72;999.90;;;27.20;99.90;;;;;;5088176;28;20322;-71
2022/07/01 09:41:44;;;;;;;1304.10;999.90;;;27.50;99.90;;;;;;5066277;28;20688;-71
2022/07/01 09:44:10;;;;;;;1289.93;999.90;;;26.80;99.90;;;;;;5074035;28;20192;-71
2022/07/01 09:46:36;;;;;;;1274.45;999.90;;;25.70;99.90;;;;;;5070738;28;20185;-71
2022/07/01 09:49:03;;;;;;;1281.47;999.90;;;25.00;99.90;;;;;;5070744;28;20219;-70
2022/07/01 09:51:29;;;;;;;1297.40;999.90;;;24.50;99.90;;;;;;5077431;28;20189;-70
2022/07/01 09:53:58;;;;;;;1293.75;999.90;;;24.10;99.90;;;;;;5059855;28;20234;-67
2022/07/01 09:56:24;;;;;;;1305.57;999.90;;;23.90;99.90;;;;;;5073722;28;20233;-68
2022/07/01 09:58:50;;;;;;;1310.85;999.90;;;23.50;99.90;;;;;;5080533;28;20572;-68
2022/07/01 10:01:17;;;;;;;1309.45;999.90;;;23.10;99.90;;;;;;5053933;28;20189;-69
2022/07/01 10:03:43;;;;;;;1316.45;999.90;;;22.80;99.90;;;;;;5058409;28;20208;-73
2022/07/01 10:06:29;;;;;;;1318.95;999.90;;;23.00;99.90;;;;;;5054779;28;20526;-67
2022/07/01 10:09:01;;;;;;;1322.07;999.90;;;23.00;99.90;;;;;;5077556;28;20231;-68
2022/07/01 10:11:42;;;;;;;1331.70;999.90;;;23.10;99.90;;;;;;5069045;28;20181;-67
2022/07/01 10:14:11;;;;;;;1343.20;999.90;;;23.20;99.90;;;;;;5089906;28;20188;-68
2022/07/01 10:16:38;;;;;;;1334.95;999.90;;;23.30;99.90;;;;;;5094635;28;20177;-67
2022/07/01 10:19:23;;;;;;;1345.60;999.90;;;23.30;99.90;;;;;;5094272;28;20180;-68
2022/07/01 10:21:56;;;;;;;1355.90;999.90;;;23.20;99.90;;;;;;5066480;28;20188;-69
2022/07/01 10:24:23;;;;;;;1365.80;999.90;;;23.30;99.90;;;;;;5078581;28;20784;-69
2022/07/01 10:26:49;;;;;;;1368.07;999.90;;;23.80;99.90;;;;;;5080932;28;20184;-69
2022/07/01 10:29:35;;;;;;;1363.75;999.90;;;23.80;99.90;;;;;;5063104;28;20569;-69
2022/07/01 10:32:11;;;;;;;1375.60;999.90;;;23.70;99.90;;;;;;5086847;28;20664;-69
2022/07/01 10:34:41;;;;;;;1377.28;999.90;;;23.70;99.90;;;;;;5095113;28;20184;-69
2022/07/01 10:37:11;;;;;;;1371.03;999.90;;;23.40;99.90;;;;;;5084759;28;20181;-69
2022/07/01 10:40:00;;;;;;;1370.57;999.90;;;23.50;99.90;;;;;;5055516;28;20552;-68
2022/07/01 10:42:36;;;;;;;1360.50;999.90;;;23.30;99.90;;;;;;5060050;28;20189;-68
2022/07/01 10:45:09;;;;;;;1371.53;999.90;;;23.20;99.90;;;;;;5071051;28;20189;-68
2022/07/01 10:47:36;;;;;;;1365.60;999.90;;;23.00;99.90;;;;;;5072864;28;20537;-68
2022/07/01 10:50:07;;;;;;;1373.10;999.90;;;22.90;99.90;;;;;;5075293;28;20718;-68
2022/07/01 10:52:34;;;;;;;1368.82;999.90;;;22.60;99.90;;;;;;5076914;28;20764;-68
2022/07/01 10:55:00;;;;;;;1362.07;999.90;;;22.40;99.90;;;;;;5060117;28;20212;-68
2022/07/01 10:57:32;;;;;;;1370.75;999.90;;;22.60;99.90;;;;;;5093626;28;20199;-68
2022/07/01 11:00:01;;;;;;;1377.85;999.90;;;22.70;99.90;;;;;;5072704;28;20217;-68
2022/07/01 11:02:35;;;;;;;1385.72;999.90;;;23.10;99.90;;;;;;5088489;28;20184;-69
2022/07/01 11:05:03;;;;;;;1385.28;999.90;;;23.20;99.90;;;;;;5076204;28;20552;-68
2022/07/01 11:07:33;;;;;;;1367.07;999.90;;;23.30;99.90;;;;;;5093782;28;20177;-68
2022/07/01 11:10:01;;;;;;;1359.53;999.90;;;23.30;99.90;;;;;;5057783;28;20216;-69
2022/07/01 11:12:28;;;;;;;1352.05;999.90;;;23.20;99.90;;;;;;5072447;28;20197;-68
2022/07/01 11:15:01;;;;;;;1333.75;999.90;;;22.90;99.90;;;;;;5081890;28;20185;-68
2022/07/01 11:17:28;;;;;;;1362.03;999.90;;;22.50;99.90;;;;;;5090188;28;20181;-68
2022/07/01 11:19:58;;;;;;;1349.30;999.90;;;22.60;99.90;;;;;;5070569;28;20652;-68
2022/07/01 11:22:29;;;;;;;1359.50;999.90;;;22.60;99.90;;;;;;5078771;28;20178;-68
2022/07/01 11:25:00;;;;;;;1361.03;999.90;;;22.60;99.90;;;;;;5092371;28;20271;-68
2022/07/01 11:27:27;;;;;;;1351.47;999.90;;;22.70;99.90;;;;;;5091763;28;20678;-69
2022/07/01 11:30:13;;;;;;;1358.90;999.90;;;22.60;99.90;;;;;;5075239;28;20212;-68
2022/07/01 11:32:51;;;;;;;1369.10;999.90;;;22.70;99.90;;;;;;5062851;28;20673;-68
2022/07/01 11:41:03;;;;;;;1382.55;999.90;;;23.40;99.90;;;;;;5086198;28;20191;-67
2022/07/01 11:43:37;;;;;;;1380.35;999.90;;;23.50;99.90;;;;;;5086571;28;20235;-68
2022/07/01 11:46:05;;;;;;;1367.80;999.90;;;23.50;99.90;;;;;;5065647;28;20185;-67
2022/07/01 11:48:38;;;;;;;1355.85;999.90;;;23.30;99.90;;;;;;5084040;28;20205;-67
2022/07/01 11:51:12;;;;;;;1354.15;999.90;;;23.10;99.90;;;;;;5082050;28;20296;-68
2022/07/01 11:53:40;;;;;;;1349.65;999.90;;;23.00;99.90;;;;;;5077381;28;20181;-68
2022/07/01 11:56:07;;;;;;;1352.20;999.90;;;23.00;99.90;;;;;;5074620;28;20276;-69
2022/07/01 11:58:50;;;;;;;1349.00;999.90;;;23.20;99.90;;;;;;5073860;28;20555;-68
2022/07/01 12:01:29;;;;;;;1348.55;999.90;;;23.30;99.90;;;;;;5068037;28;20239;-69
2022/07/01 12:03:56;;;;;;;1338.43;999.90;;;23.10;99.90;;;;;;5069662;28;20269;-71
2022/07/01 12:06:23;;;;;;;1339.43;999.90;;;23.00;99.90;;;;;;5068446;28;20180;-69
2022/07/01 12:08:50;;;;;;;1350.25;999.90;;;23.00;99.90;;;;;;5084249;28;20719;-68
2022/07/01 12:11:18;;;;;;;1346.10;999.90;;;23.30;99.90;;;;;;5072864;28;20246;-68
2022/07/01 12:13:46;;;;;;;1345.88;999.90;;;23.30;99.90;;;;;;5075024;28;20184;-69
2022/07/01 12:16:12;;;;;;;1338.10;999.90;;;23.30;99.90;;;;;;5085786;28;20595;-68
2022/07/01 12:18:38;;;;;;;1347.10;999.90;;;23.40;99.90;;;;;;5049008;28;20188;-69
2022/07/01 12:21:04;;;;;;;1348.25;999.90;;;23.70;99.90;;;;;;5066436;28;20523;-70